createdAt,value
2018-12-30T00:00:09.374Z,21.60
2018-12-30T00:02:37.657Z,22.50
2018-12-30T00:05:06.374Z,22.23
2018-12-30T00:07:34.825Z,20.17
2018-12-30T00:10:03.022Z,21.00
2018-12-30T00:12:31.380Z,21.90
2018-12-30T00:14:59.672Z,20.80
2018-12-30T00:17:27.891Z,21.07
2018-12-30T00:19:56.512Z,21.47
2018-12-30T00:22:24.841Z,20.17
2018-12-30T00:24:53.149Z,20.90
2018-12-30T00:27:21.366Z,20.43
2018-12-30T00:29:49.590Z,19.83
2018-12-30T00:32:17.838Z,19.10
2018-12-30T00:34:46.056Z,24.50
2018-12-30T00:37:14.675Z,19.07
2018-12-30T00:39:42.900Z,20.20
2018-12-30T00:42:11.125Z,19.80
2018-12-30T00:44:39.319Z,22.40
2018-12-30T00:47:07.637Z,24.43
2018-12-30T00:49:35.876Z,22.53
2018-12-30T00:52:04.181Z,22.20
2018-12-30T00:54:32.560Z,19.97
2018-12-30T00:57:00.741Z,20.27
2018-12-30T00:59:28.952Z,21.20
2018-12-30T01:01:57.587Z,19.53
2018-12-30T01:04:25.881Z,21.00
2018-12-30T01:06:54.796Z,25.87
2018-12-30T01:09:23.021Z,24.33
2018-12-30T01:11:51.267Z,23.07
2018-12-30T01:14:19.482Z,20.80
2018-12-30T01:16:48.017Z,18.43
2018-12-30T01:19:16.333Z,17.67
2018-12-30T01:21:44.665Z,17.43
2018-12-30T01:24:12.885Z,18.40
2018-12-30T01:26:41.096Z,18.20
2018-12-30T01:29:09.301Z,17.10
2018-12-30T01:31:37.626Z,17.70
2018-12-30T01:34:05.869Z,17.83
2018-12-30T01:36:34.173Z,17.07
2018-12-30T01:39:02.466Z,17.77
2018-12-30T01:41:30.790Z,17.90
2018-12-30T01:43:59.314Z,17.60
2018-12-30T01:46:27.531Z,17.40
2018-12-30T01:48:55.735Z,17.57
2018-12-30T01:51:24.036Z,18.73
2018-12-30T01:53:52.398Z,19.80
2018-12-30T01:56:20.584Z,18.37
2018-12-30T01:58:49.239Z,17.37
2018-12-30T02:01:17.428Z,18.07
2018-12-30T02:03:45.660Z,17.83
2018-12-30T02:06:13.860Z,19.40
2018-12-30T02:08:42.048Z,18.07
2018-12-30T02:11:10.443Z,16.47
2018-12-30T02:13:38.649Z,19.37
2018-12-30T02:16:06.887Z,19.63
2018-12-30T02:18:35.109Z,19.30
2018-12-30T02:21:03.293Z,18.37
2018-12-30T02:23:31.497Z,19.43
2018-12-30T02:25:59.693Z,17.83
2018-12-30T02:28:27.909Z,16.80
2018-12-30T02:30:56.102Z,17.50
2018-12-30T02:33:24.318Z,17.20
2018-12-30T02:35:52.548Z,17.53
2018-12-30T02:38:21.080Z,15.90
2018-12-30T02:40:49.305Z,16.60
2018-12-30T02:43:17.488Z,15.73
2018-12-30T02:45:45.680Z,15.60
2018-12-30T02:48:13.950Z,13.93
2018-12-30T02:50:42.470Z,14.60
2018-12-30T02:53:10.653Z,14.80
2018-12-30T02:55:38.857Z,13.57
2018-12-30T02:58:07.059Z,12.60
2018-12-30T03:00:35.266Z,12.60
2018-12-30T03:03:03.889Z,11.63
2018-12-30T03:05:32.066Z,14.97
2018-12-30T03:08:00.330Z,13.20
2018-12-30T03:10:28.518Z,12.63
2018-12-30T03:12:56.724Z,13.43
2018-12-30T03:15:25.349Z,11.77
2018-12-30T03:17:53.545Z,12.77
2018-12-30T03:20:21.763Z,11.97
2018-12-30T03:22:49.978Z,12.90
2018-12-30T03:25:18.176Z,12.00
2018-12-30T03:27:46.402Z,12.30
2018-12-30T03:30:14.583Z,11.83
2018-12-30T03:32:42.799Z,11.40
2018-12-30T03:35:11.170Z,12.30
2018-12-30T03:37:39.384Z,12.43
2018-12-30T03:40:09.237Z,13.30
2018-12-30T03:42:37.445Z,13.30
2018-12-30T03:45:06.239Z,10.93
2018-12-30T03:47:34.451Z,12.00
2018-12-30T03:50:02.740Z,12.37
2018-12-30T03:52:30.946Z,12.07
2018-12-30T03:54:59.123Z,13.23
2018-12-30T03:57:27.303Z,11.10
2018-12-30T03:59:55.514Z,13.60
2018-12-30T04:02:24.310Z,11.90
2018-12-30T04:04:52.505Z,21.00
2018-12-30T04:07:20.717Z,22.10
2018-12-30T04:09:48.909Z,26.00
2018-12-30T04:12:17.115Z,26.90
2018-12-30T04:14:45.315Z,25.70
2018-12-30T04:17:13.556Z,27.70
2018-12-30T04:19:41.756Z,27.00
2018-12-30T04:22:16.844Z,24.97
2018-12-30T04:24:40.197Z,26.80
2018-12-30T04:27:08.371Z,25.90
2018-12-30T04:29:36.544Z,24.20
2018-12-30T04:32:04.738Z,28.20
2018-12-30T04:34:32.916Z,24.70
2018-12-30T04:37:01.142Z,25.60
2018-12-30T04:39:29.347Z,25.50
2018-12-30T04:41:57.516Z,23.13
2018-12-30T04:44:25.730Z,23.23
2018-12-30T04:46:53.909Z,23.50
2018-12-30T04:49:22.128Z,20.87
2018-12-30T04:51:50.318Z,23.80
2018-12-30T04:54:18.498Z,23.40
2018-12-30T04:56:46.713Z,24.23
2018-12-30T04:59:14.893Z,22.10
2018-12-30T05:01:43.116Z,21.50
2018-12-30T05:04:11.296Z,24.03
2018-12-30T05:06:39.543Z,23.43
2018-12-30T05:09:07.869Z,26.10
2018-12-30T05:11:36.050Z,28.30
2018-12-30T05:14:04.246Z,30.20
2018-12-30T05:16:32.463Z,30.50
2018-12-30T05:19:00.685Z,31.67
2018-12-30T05:21:28.899Z,32.17
2018-12-30T05:23:57.137Z,33.67
2018-12-30T05:26:25.343Z,34.90
2018-12-30T05:28:53.526Z,33.30
2018-12-30T05:31:21.744Z,31.00
2018-12-30T05:33:50.013Z,32.30
2018-12-30T05:36:18.196Z,30.20
2018-12-30T05:38:46.400Z,33.07
2018-12-30T05:41:14.597Z,33.17
2018-12-30T05:43:42.844Z,30.87
2018-12-30T05:46:11.047Z,34.80
2018-12-30T05:48:39.220Z,32.53
2018-12-30T05:51:07.400Z,33.13
2018-12-30T05:53:35.600Z,33.80
2018-12-30T05:56:03.772Z,32.50
2018-12-30T05:58:31.969Z,31.47
2018-12-30T06:01:00.241Z,32.90
2018-12-30T06:03:28.423Z,32.33
2018-12-30T06:05:56.630Z,33.57
2018-12-30T06:08:24.838Z,29.40
2018-12-30T06:10:53.056Z,29.23
2018-12-30T06:13:21.282Z,26.20
2018-12-30T06:15:49.465Z,26.33
2018-12-30T06:18:17.643Z,21.70
2018-12-30T06:20:45.843Z,23.93
2018-12-30T06:23:14.098Z,20.73
2018-12-30T06:25:42.351Z,21.40
2018-12-30T06:28:10.597Z,20.73
2018-12-30T06:30:38.783Z,18.70
2018-12-30T06:33:06.971Z,20.37
2018-12-30T06:35:35.145Z,19.07
2018-12-30T06:38:03.346Z,21.03
2018-12-30T06:40:31.566Z,19.60
2018-12-30T06:42:59.753Z,20.57
2018-12-30T06:45:27.956Z,21.63
2018-12-30T06:47:56.158Z,23.30
2018-12-30T06:50:24.491Z,21.80
2018-12-30T06:52:57.587Z,21.93
2018-12-30T06:55:22.908Z,23.63
2018-12-30T06:57:51.108Z,21.53
2018-12-30T07:00:19.302Z,21.17
2018-12-30T07:02:47.519Z,22.10
2018-12-30T07:05:15.730Z,24.40
2018-12-30T07:07:43.902Z,21.90
2018-12-30T07:10:12.107Z,20.70
2018-12-30T07:12:40.298Z,21.17
2018-12-30T07:15:09.182Z,21.10
2018-12-30T07:17:37.359Z,21.00
2018-12-30T07:20:07.341Z,20.33
2018-12-30T07:22:35.582Z,21.13
2018-12-30T07:25:04.013Z,17.57
2018-12-30T07:27:32.191Z,18.60
2018-12-30T07:30:00.401Z,17.53
2018-12-30T07:32:28.592Z,17.60
2018-12-30T07:34:57.249Z,17.33
2018-12-30T07:37:25.440Z,16.70
2018-12-30T07:39:53.622Z,18.83
2018-12-30T07:42:21.834Z,21.57
2018-12-30T07:44:50.050Z,21.33
2018-12-30T07:47:18.231Z,16.30
2018-12-30T07:49:46.437Z,19.57
2018-12-30T07:52:14.620Z,19.87
2018-12-30T07:54:42.897Z,17.23
2018-12-30T07:57:11.199Z,17.80
2018-12-30T07:59:39.385Z,19.83
2018-12-30T08:02:07.618Z,17.50
2018-12-30T08:04:35.816Z,17.60
2018-12-30T08:07:04.049Z,17.97
2018-12-30T08:09:32.251Z,17.07
2018-12-30T08:12:00.455Z,16.67
2018-12-30T08:14:28.997Z,17.00
2018-12-30T08:16:57.255Z,14.63
2018-12-30T08:19:25.435Z,12.40
2018-12-30T08:21:53.625Z,14.57
2018-12-30T08:24:21.831Z,13.87
2018-12-30T08:26:50.018Z,12.90
2018-12-30T08:29:18.197Z,11.37
2018-12-30T08:31:46.392Z,12.50
2018-12-30T08:34:14.577Z,13.10
2018-12-30T08:36:42.837Z,22.53
2018-12-30T08:39:11.018Z,15.60
2018-12-30T08:41:39.255Z,15.00
2018-12-30T08:44:07.435Z,12.53
2018-12-30T08:46:35.623Z,11.87
2018-12-30T08:49:03.872Z,11.50
2018-12-30T08:51:32.055Z,12.23
2018-12-30T08:54:00.365Z,14.23
2018-12-30T08:56:28.598Z,13.50
2018-12-30T08:58:56.902Z,12.40
2018-12-30T09:01:28.414Z,15.60
2018-12-30T09:03:55.377Z,13.07
2018-12-30T09:06:23.561Z,13.57
2018-12-30T09:08:51.910Z,10.93
2018-12-30T09:11:20.095Z,10.30
2018-12-30T09:13:48.274Z,9.50
2018-12-30T09:16:16.498Z,10.50
2018-12-30T09:18:44.674Z,10.33
2018-12-30T09:21:12.909Z,10.30
2018-12-30T09:23:41.231Z,9.67
2018-12-30T09:26:09.401Z,9.87
2018-12-30T09:28:37.592Z,11.20
2018-12-30T09:31:05.762Z,9.77
2018-12-30T09:33:33.973Z,12.50
2018-12-30T09:36:02.169Z,12.97
2018-12-30T09:38:30.363Z,11.43
2018-12-30T09:40:58.566Z,11.50
2018-12-30T09:43:26.752Z,11.20
2018-12-30T09:45:54.943Z,10.20
2018-12-30T09:48:23.142Z,11.27
2018-12-30T09:50:51.329Z,10.63
2018-12-30T09:53:19.544Z,9.83
2018-12-30T09:55:47.720Z,11.53
2018-12-30T09:58:15.895Z,9.17
2018-12-30T10:00:44.096Z,10.30
2018-12-30T10:03:12.288Z,9.30
2018-12-30T10:05:40.460Z,15.80
2018-12-30T10:08:08.661Z,17.10
2018-12-30T10:10:36.829Z,12.47
2018-12-30T10:13:05.095Z,12.13
2018-12-30T10:15:34.137Z,10.33
2018-12-30T10:18:02.332Z,11.73
2018-12-30T10:20:31.210Z,12.60
2018-12-30T10:22:59.447Z,13.87
2018-12-30T10:25:27.916Z,11.80
2018-12-30T10:27:56.162Z,10.27
2018-12-30T10:30:24.345Z,9.53
2018-12-30T10:32:52.641Z,11.00
2018-12-30T10:35:20.847Z,9.20
2018-12-30T10:37:49.064Z,10.17
2018-12-30T10:40:17.284Z,15.17
2018-12-30T10:42:45.478Z,14.17
2018-12-30T10:45:13.675Z,10.00
2018-12-30T10:47:41.889Z,8.40
2018-12-30T10:50:10.063Z,8.87
2018-12-30T10:52:38.252Z,9.10
2018-12-30T10:55:06.458Z,9.50
2018-12-30T10:57:34.656Z,9.70
2018-12-30T11:00:02.903Z,10.00
2018-12-30T11:02:31.092Z,9.70
2018-12-30T11:05:00.308Z,9.87
2018-12-30T11:07:28.511Z,8.73
2018-12-30T11:09:56.687Z,9.20
2018-12-30T11:12:24.910Z,9.80
2018-12-30T11:14:53.111Z,8.90
2018-12-30T11:17:21.343Z,10.43
2018-12-30T11:19:49.559Z,10.57
2018-12-30T11:22:17.760Z,10.90
2018-12-30T11:24:45.958Z,12.07
2018-12-30T11:27:14.162Z,10.73
2018-12-30T11:29:42.356Z,10.63
2018-12-30T11:32:10.594Z,19.83
2018-12-30T11:34:38.783Z,19.67
2018-12-30T11:37:06.977Z,12.50
2018-12-30T11:39:35.192Z,11.10
2018-12-30T11:42:03.370Z,12.07
2018-12-30T11:44:31.550Z,14.00
2018-12-30T11:46:59.757Z,11.33
2018-12-30T11:49:27.943Z,14.33
2018-12-30T11:51:56.170Z,8.90
2018-12-30T11:54:24.384Z,11.23
2018-12-30T11:56:52.584Z,11.07
2018-12-30T11:59:20.774Z,10.80
2018-12-30T12:01:48.976Z,10.20
2018-12-30T12:04:17.159Z,10.47
2018-12-30T12:06:45.413Z,10.10
2018-12-30T12:09:19.498Z,11.57
2018-12-30T12:11:47.683Z,12.23
2018-12-30T12:14:15.894Z,10.77
2018-12-30T12:16:44.078Z,11.20
2018-12-30T12:19:12.253Z,12.30
2018-12-30T12:21:40.461Z,11.10
2018-12-30T12:24:08.664Z,10.27
2018-12-30T12:26:36.840Z,9.47
2018-12-30T12:29:05.039Z,10.03
2018-12-30T12:31:33.213Z,12.00
2018-12-30T12:34:01.429Z,11.70
2018-12-30T12:36:29.647Z,16.90
2018-12-30T12:38:57.832Z,21.53
2018-12-30T12:41:26.021Z,25.50
2018-12-30T12:43:54.277Z,23.30
2018-12-30T12:46:22.521Z,23.20
2018-12-30T12:48:50.728Z,8.43
2018-12-30T12:51:18.943Z,6.00
2018-12-30T12:53:47.135Z,19.70
2018-12-30T12:56:15.353Z,31.07
2018-12-30T12:58:43.548Z,31.93
2018-12-30T13:01:11.772Z,32.33
2018-12-30T13:03:39.992Z,33.90
2018-12-30T13:06:08.173Z,34.47
2018-12-30T13:08:36.380Z,34.10
2018-12-30T13:11:04.558Z,36.57
2018-12-30T13:13:32.749Z,38.67
2018-12-30T13:16:03.498Z,37.87
2018-12-30T13:18:31.173Z,40.03
2018-12-30T13:20:59.385Z,38.70
2018-12-30T13:23:27.597Z,36.63
2018-12-30T13:25:55.781Z,36.67
2018-12-30T13:28:23.984Z,40.53
2018-12-30T13:31:25.499Z,46.33
2018-12-30T13:33:55.002Z,36.73
2018-12-30T13:36:24.865Z,29.00
2018-12-30T13:38:54.348Z,31.70
2018-12-30T13:41:23.854Z,29.43
2018-12-30T13:43:53.320Z,27.77
2018-12-30T13:46:22.801Z,26.30
2018-12-30T13:48:52.297Z,34.10
2018-12-30T13:51:21.774Z,27.20
2018-12-30T13:53:51.287Z,27.70
2018-12-30T13:56:20.829Z,24.33
2018-12-30T13:58:50.429Z,23.40
2018-12-30T14:01:20.239Z,23.87
2018-12-30T14:03:49.771Z,24.33
2018-12-30T14:06:19.283Z,24.80
2018-12-30T14:08:48.773Z,6.23
2018-12-30T14:11:18.210Z,5.60
2018-12-30T14:13:47.718Z,2.10
2018-12-30T14:16:17.221Z,11.70
2018-12-30T14:18:46.856Z,25.57
2018-12-30T14:21:16.338Z,15.40
2018-12-30T14:23:45.803Z,15.17
2018-12-30T14:26:15.309Z,14.20
2018-12-30T14:28:44.777Z,6.63
2018-12-30T14:31:14.398Z,4.40
2018-12-30T14:33:43.983Z,4.27
2018-12-30T14:36:13.470Z,1.80
2018-12-30T14:38:42.949Z,4.17
2018-12-30T14:41:12.403Z,2.17
2018-12-30T14:43:41.859Z,1.80
2018-12-30T14:46:11.309Z,1.23
2018-12-30T14:48:40.816Z,0.90
2018-12-30T14:51:10.297Z,0.83
2018-12-30T14:53:39.757Z,1.30
2018-12-30T14:56:09.264Z,0.70
2018-12-30T14:58:38.720Z,1.07
2018-12-30T15:01:14.825Z,0.50
2018-12-30T15:03:39.420Z,0.40
2018-12-30T15:06:08.880Z,1.00
2018-12-30T15:08:38.341Z,0.70
2018-12-30T15:11:07.830Z,0.60
2018-12-30T15:13:37.230Z,0.90
2018-12-30T15:16:06.696Z,1.80
2018-12-30T15:18:36.192Z,0.60
2018-12-30T15:21:05.682Z,0.70
2018-12-30T15:23:35.162Z,0.50
2018-12-30T15:26:04.643Z,0.50
2018-12-30T15:28:34.109Z,0.60
2018-12-30T15:31:03.577Z,0.97
2018-12-30T15:33:33.035Z,0.60
2018-12-30T15:36:02.584Z,0.60
2018-12-30T15:38:32.054Z,0.90
2018-12-30T15:41:01.513Z,0.70
2018-12-30T15:43:30.999Z,0.40
2018-12-30T15:46:00.458Z,0.60
2018-12-30T15:48:29.948Z,1.00
2018-12-30T15:50:59.440Z,0.40
2018-12-30T15:53:28.899Z,0.80
2018-12-30T15:55:58.377Z,1.10
2018-12-30T15:58:27.846Z,0.83
2018-12-30T16:00:57.333Z,0.97
2018-12-30T16:03:26.790Z,0.60
2018-12-30T16:05:57.799Z,0.80
2018-12-30T16:08:27.451Z,0.60
2018-12-30T16:10:56.916Z,1.63
2018-12-30T16:13:26.485Z,1.30
2018-12-30T16:15:56.076Z,1.40
2018-12-30T16:18:25.605Z,0.93
2018-12-30T16:20:55.074Z,0.60
2018-12-30T16:23:24.553Z,0.50
2018-12-30T16:25:54.025Z,0.53
2018-12-30T16:28:23.498Z,0.60
2018-12-30T16:30:52.972Z,1.37
2018-12-30T16:33:22.429Z,1.00
2018-12-30T16:35:51.958Z,0.70
2018-12-30T16:38:21.424Z,0.40
2018-12-30T16:40:50.888Z,0.50
2018-12-30T16:43:20.389Z,1.90
2018-12-30T16:45:49.854Z,0.70
2018-12-30T16:48:19.316Z,1.40
2018-12-30T16:50:48.924Z,1.10
2018-12-30T16:53:18.385Z,1.27
2018-12-30T16:55:47.964Z,0.87
2018-12-30T16:58:17.458Z,0.40
2018-12-30T17:00:46.995Z,0.60
2018-12-30T17:03:16.452Z,0.80
2018-12-30T17:05:47.819Z,0.47
2018-12-30T17:08:17.283Z,0.80
2018-12-30T17:10:46.778Z,0.77
2018-12-30T17:13:16.248Z,1.07
2018-12-30T17:15:45.719Z,1.00
2018-12-30T17:18:15.323Z,1.70
2018-12-30T17:20:44.789Z,1.30
2018-12-30T17:23:14.246Z,1.53
2018-12-30T17:25:43.751Z,2.20
2018-12-30T17:28:13.235Z,0.93
2018-12-30T17:30:42.717Z,0.73
2018-12-30T17:33:12.309Z,0.80
2018-12-30T17:35:41.760Z,1.20
2018-12-30T17:38:11.294Z,1.10
2018-12-30T17:40:40.748Z,1.40
2018-12-30T17:43:10.248Z,0.70
2018-12-30T17:45:39.859Z,0.80
2018-12-30T17:48:09.340Z,0.50
2018-12-30T17:50:38.871Z,0.70
2018-12-30T17:53:08.332Z,1.70
2018-12-30T17:55:37.835Z,1.50
2018-12-30T17:58:07.278Z,1.17
2018-12-30T18:00:36.782Z,0.60
2018-12-30T18:03:06.242Z,1.27
2018-12-30T18:05:35.909Z,0.93
2018-12-30T18:08:05.406Z,1.33
2018-12-30T18:10:34.871Z,1.20
2018-12-30T18:13:04.334Z,1.00
2018-12-30T18:15:33.818Z,0.97
2018-12-30T18:18:03.296Z,1.00
2018-12-30T18:20:32.759Z,1.20
2018-12-30T18:23:02.251Z,1.10
2018-12-30T18:25:31.728Z,1.07
2018-12-30T18:28:01.172Z,1.20
2018-12-30T18:30:30.663Z,1.00
2018-12-30T18:33:00.127Z,1.20
2018-12-30T18:35:29.601Z,0.90
2018-12-30T18:37:59.094Z,1.17
2018-12-30T18:40:28.552Z,2.30
2018-12-30T18:42:58.129Z,2.00
2018-12-30T18:45:27.638Z,6.73
2018-12-30T18:47:57.117Z,1.10
2018-12-30T18:50:26.588Z,2.63
2018-12-30T18:52:56.075Z,1.40
2018-12-30T18:55:25.565Z,2.43
2018-12-30T18:57:55.064Z,1.57
2018-12-30T19:00:24.507Z,1.37
2018-12-30T19:02:54.080Z,1.40
2018-12-30T19:05:23.575Z,1.50
2018-12-30T19:07:53.059Z,1.70
2018-12-30T19:10:22.520Z,1.30
2018-12-30T19:12:52.031Z,2.33
2018-12-30T19:15:21.526Z,0.80
2018-12-30T19:17:51.003Z,0.90
2018-12-30T19:20:20.496Z,1.07
2018-12-30T19:22:49.970Z,1.00
2018-12-30T19:25:19.435Z,1.10
2018-12-30T19:27:48.934Z,0.90
2018-12-30T19:30:18.399Z,0.83
2018-12-30T19:32:48.306Z,1.17
2018-12-30T19:35:18.931Z,0.97
2018-12-30T19:40:38.486Z,0.80
2018-12-30T19:43:08.164Z,0.80
2018-12-30T19:45:37.773Z,0.80
2018-12-30T19:48:07.464Z,0.80
2018-12-30T19:50:37.283Z,0.80
2018-12-30T19:53:07.022Z,1.00
2018-12-30T19:55:39.211Z,0.90
2018-12-30T19:58:08.820Z,0.70
2018-12-30T20:00:38.280Z,1.10
2018-12-30T20:03:07.840Z,1.23
2018-12-30T20:05:37.328Z,0.73
2018-12-30T20:08:07.125Z,0.87
2018-12-30T20:10:36.725Z,1.00
2018-12-30T20:13:09.190Z,0.90
2018-12-30T20:15:37.541Z,1.13
2018-12-30T20:18:07.007Z,1.30
2018-12-30T20:20:36.472Z,1.00
2018-12-30T20:23:25.320Z,0.73
2018-12-30T20:25:55.038Z,1.03
2018-12-30T20:28:24.582Z,1.00
2018-12-30T20:30:54.049Z,1.17
2018-12-30T20:33:23.527Z,0.60
2018-12-30T20:35:53.020Z,0.60
2018-12-30T20:38:22.479Z,1.17
2018-12-30T20:40:52.265Z,0.87
2018-12-30T20:43:21.755Z,1.00
2018-12-30T20:45:51.224Z,2.23
2018-12-30T20:48:20.735Z,1.10
2018-12-30T20:51:09.585Z,1.80
2018-12-30T20:53:39.070Z,2.20
2018-12-30T20:56:08.832Z,2.37
2018-12-30T20:58:38.293Z,2.10
2018-12-30T21:01:07.773Z,1.83
2018-12-30T21:03:37.454Z,2.40
2018-12-30T21:06:07.135Z,1.50
2018-12-30T21:08:36.665Z,3.43
2018-12-30T21:11:06.157Z,1.50
2018-12-30T21:13:35.805Z,5.50
2018-12-30T21:16:05.314Z,4.27
2018-12-30T21:18:35.029Z,6.23
2018-12-30T21:21:04.526Z,3.13
2018-12-30T21:23:34.058Z,8.33
2018-12-30T21:26:03.516Z,3.77
2018-12-30T21:28:33.104Z,3.53
2018-12-30T21:31:02.781Z,3.10
2018-12-30T21:33:32.336Z,3.27
2018-12-30T21:36:01.837Z,3.20
2018-12-30T21:38:31.316Z,2.30
2018-12-30T21:41:00.793Z,1.83
2018-12-30T21:43:30.350Z,1.80
2018-12-30T21:45:59.818Z,2.50
2018-12-30T21:48:29.492Z,2.47
2018-12-30T21:50:58.953Z,1.80
2018-12-30T21:53:28.468Z,1.50
2018-12-30T21:55:57.984Z,1.50
2018-12-30T21:58:27.472Z,1.20
2018-12-30T22:00:57.068Z,1.03
2018-12-30T22:03:26.527Z,0.80
2018-12-30T22:05:56.008Z,0.60
2018-12-30T22:08:25.479Z,0.60
2018-12-30T22:10:56.388Z,0.90
2018-12-30T22:13:25.810Z,0.77
2018-12-30T22:15:55.284Z,0.67
2018-12-30T22:18:24.775Z,0.43
2018-12-30T22:20:54.243Z,0.70
2018-12-30T22:26:12.104Z,0.67
2018-12-30T22:28:41.589Z,0.40
2018-12-30T22:31:11.074Z,0.40
2018-12-30T22:33:40.540Z,0.30
2018-12-30T22:36:09.996Z,0.37
2018-12-30T22:38:42.697Z,0.30
2018-12-30T22:41:12.275Z,0.40
2018-12-30T22:43:41.768Z,0.30
2018-12-30T22:46:11.231Z,0.80
2018-12-30T22:48:40.709Z,0.70
2018-12-30T22:51:10.201Z,2.03
2018-12-30T22:53:39.663Z,0.53
2018-12-30T22:56:09.469Z,1.50
2018-12-30T22:58:38.874Z,0.40
2018-12-30T23:01:08.747Z,0.67
2018-12-30T23:03:38.279Z,0.40
2018-12-30T23:06:07.744Z,0.40
2018-12-30T23:08:37.207Z,0.30
2018-12-30T23:11:06.697Z,0.30
2018-12-30T23:13:36.160Z,0.90
2018-12-30T23:16:05.663Z,0.47
2018-12-30T23:18:35.149Z,0.40
2018-12-30T23:21:04.620Z,0.73
2018-12-30T23:23:34.118Z,0.50
2018-12-30T23:26:03.622Z,0.30
2018-12-30T23:28:33.174Z,0.70
2018-12-30T23:31:02.676Z,1.97
2018-12-30T23:33:32.134Z,0.60
2018-12-30T23:36:01.637Z,0.40
2018-12-30T23:38:31.087Z,0.50
2018-12-30T23:41:00.546Z,0.50
2018-12-30T23:43:30.043Z,0.30
2018-12-30T23:45:59.513Z,0.30
2018-12-30T23:48:28.984Z,0.60
2018-12-30T23:50:58.467Z,0.30
2018-12-30T23:53:27.921Z,0.63
2018-12-30T23:55:57.731Z,0.90
2018-12-30T23:58:27.195Z,0.33
